Aeroporto :
LOGIN :

Iscrizione | Disclaimer

   EN    FR    IT 

 










Sommario :    VFR   VFR Marginale   IFR   IFR Intensivo   IFR Molto Intensivo
Visibilità : 
Base nubi : 
>= 8 km
>= 3000ft
5 / 8 km
1000 / 3000 ft
1500m / 5 km
500 / 1000 ft
800 / 1500m
200 / 500 ft
< 800m
< 200 ft
Simboli :   Temporali  Nebbia  Neve Forte  Precipitazioni Forti  Vento > 20 kt
SIGMETs :   Varie  Temporali  Ghiacco  Turbolenza  Onda orograficha  Ceneri Vulcaniche






- Altitudine del aeroporto : 87 ft
- Codice IATA : FSC


LFKF - Figari

ULTIMO METAR :
  • 271130Z AUTO 28018KT 250V310 9999 FEW052 15/02 Q1015

METARs OBSOLETI :
  • 271100Z AUTO 26018KT 230V300 9999 FEW054 16/02 Q1015 TEMPO SCT015 FEW020TCU BKN025 BECMG 29015G30KT
  • 271030Z AUTO 27020G32KT 240V300 9999 SCT048 BKN058 15/03 Q1015 TEMPO SCT015 FEW020TCU BKN025
  • 271000Z AUTO 28016G28KT 230V310 9999 BKN052 14/02 Q1016 NOSIG
  • 270930Z AUTO 28016KT 240V320 9999 SCT050 14/01 Q1016 BECMG 29015G30KT
  • 270900Z AUTO 27013G23KT 240V300 9999 SCT052 13/01 Q1016 NOSIG

TAF TAF LFKF
Valido dal 27 a 09 ore il 28 a 09 ore UTC


270800Z 2709/2809 29015G30KT 9999 NSC
BECMG 2710/2712 BKN025
TEMPO 2712/2718 SCT015 FEW020TCU BKN025
BECMG 2716/2718 28025G45KT



MetMap, La meteo Aeronautica in un colpo d'occhio ! - Copyright ORBIFLY Dicembre 2007 - Disclaimer

ORBIFLY MET'MAP TEAM :

Programmazione e sviluppo : Alexandra Zaïnal
Concezione : Baudouin d'Aumeries
Aiuto per la programmazione : Marc-Olivier Méhu
Supporto tecnico e logistico : Manuel Goepfert
Aiuto per la traduzione : Arnaldo La Scala

Contatto : metmap@orbifly.com




FONTI E CREDITI :

   NOAA